createdAt,value
2022-08-24T10:20:05.600Z,26.4
2022-08-24T10:21:08.199Z,26.3
2022-08-24T10:22:10.982Z,26.4
2022-08-24T10:23:14.346Z,26.5
2022-08-24T10:24:16.927Z,26.7
2022-08-24T10:25:19.248Z,26.5
2022-08-24T10:26:23.005Z,26.3
2022-08-24T10:27:25.874Z,26.2
2022-08-24T10:28:28.741Z,26.4
2022-08-24T10:29:31.714Z,26.6
2022-08-24T10:30:34.800Z,26.7
2022-08-24T10:31:39.042Z,26.9
2022-08-24T10:32:42.269Z,27.1
2022-08-24T10:33:45.446Z,27.1
2022-08-24T10:34:48.582Z,26.9
2022-08-24T10:35:51.164Z,26.6
2022-08-24T10:36:53.952Z,26.5
2022-08-24T10:37:57.601Z,26.1
2022-08-24T10:39:01.277Z,26
2022-08-24T10:40:10.441Z,26.2
2022-08-24T10:41:14.935Z,26.2
2022-08-24T10:42:18.426Z,26.1
2022-08-24T10:44:29.456Z,26.2
2022-08-24T10:45:32.420Z,26
2022-08-24T10:46:35.363Z,26.1
2022-08-24T15:41:44.402Z,36.2
2022-08-24T15:42:48.065Z,36
2022-08-24T15:43:51.436Z,36.1
2022-08-24T16:52:11.456Z,31.1
2022-08-24T16:53:14.243Z,31
2022-08-24T16:54:17.421Z,30.9
2022-08-24T16:55:20.465Z,30.7
2022-08-24T16:56:23.330Z,30.6
2022-08-24T16:58:29.022Z,30.2
2022-08-24T16:59:31.808Z,30.1
2022-08-24T17:00:34.675Z,30
2022-08-24T17:02:41.132Z,29.9
2022-08-24T17:03:44.547Z,29.8
2022-08-24T17:04:47.612Z,29.7
2022-08-24T17:05:51.344Z,29.6
2022-08-24T17:06:54.411Z,29.4
2022-08-24T17:07:56.650Z,29.4
2022-08-24T17:08:59.148Z,29.3
2022-08-24T17:10:02.790Z,29.2
2022-08-24T17:11:05.934Z,29.1
2022-08-24T17:12:09.707Z,29.1
2022-08-24T17:13:50.432Z,28.9
2022-08-24T17:14:57.727Z,28.9
2022-08-24T17:16:00.874Z,28.8
2022-08-24T17:17:04.217Z,28.8
2022-08-24T17:18:07.314Z,28.7
2022-08-24T17:19:12.509Z,28.6
2022-08-24T17:20:20.565Z,28.4
2022-08-24T17:57:38.706Z,26.5
2022-08-24T17:58:41.293Z,26.5
2022-08-24T17:59:44.070Z,26.4
2022-08-24T18:00:47.104Z,26.4
2022-08-24T18:01:50.149Z,26.3
2022-08-24T18:02:52.680Z,26.3
2022-08-24T18:03:56.171Z,26.3
2022-08-24T18:04:59.083Z,26.3
2022-08-24T18:06:02.159Z,26.3
2022-08-24T18:07:05.017Z,26.3
2022-08-24T18:08:11.537Z,26.2
2022-08-24T18:09:14.783Z,26.1
2022-08-24T18:10:17.644Z,26.1
2022-08-24T18:11:26.979Z,26.1
2022-08-24T18:12:30.144Z,26.1
2022-08-24T18:13:33.131Z,26
2022-08-24T18:14:36.543Z,25.9
2022-08-24T18:15:39.903Z,25.8
2022-08-24T18:16:57.129Z,25.8
2022-08-24T18:18:01.798Z,25.8
2022-08-24T18:19:04.939Z,25.8
2022-08-24T18:20:07.649Z,25.8
2022-08-24T18:21:10.461Z,25.7
2022-08-24T18:22:13.599Z,25.7
2022-08-24T18:23:25.307Z,25.7
2022-08-24T18:24:29.546Z,25.6
2022-08-24T18:25:32.136Z,25.6
2022-08-24T18:26:35.005Z,25.5
2022-08-24T18:27:38.564Z,25.5
2022-08-24T18:28:45.841Z,25.4
2022-08-24T18:29:57.919Z,25.4
2022-08-24T18:31:06.635Z,25.4
2022-08-24T18:32:09.468Z,25.3
2022-08-24T18:33:12.306Z,25.3
2022-08-24T18:34:15.369Z,25.3
2022-08-24T18:35:18.646Z,25.3
2022-08-24T18:36:21.994Z,25.3
2022-08-24T18:37:25.215Z,25.2
2022-08-24T18:38:28.001Z,25.2
2022-08-24T18:39:32.659Z,25.3
2022-08-24T18:40:36.548Z,25.2
2022-08-24T18:41:40.085Z,25.2
2022-08-24T18:42:43.060Z,25.2
2022-08-24T18:43:47.469Z,25.2
2022-08-24T18:44:50.121Z,25.2
2022-08-24T18:45:53.491Z,25.2
2022-08-24T18:46:56.970Z,25.1
2022-08-24T18:47:59.204Z,25.1
2022-08-24T18:49:02.649Z,25.1
2022-08-24T18:50:05.511Z,25
2022-08-24T18:51:08.304Z,25
2022-08-24T18:52:11.088Z,25
2022-08-24T18:53:14.432Z,24.9
2022-08-24T18:54:17.965Z,24.8
2022-08-24T18:55:21.094Z,24.8
2022-08-24T18:56:24.156Z,24.8
2022-08-24T18:57:27.019Z,24.8
2022-08-24T18:58:30.160Z,24.8
2022-08-24T18:59:32.862Z,24.8
2022-08-24T19:00:36.181Z,24.8
